Time;durP1;ratioP1;P1;durP2;ratioP2;P2;SDS_P1;SDS_P2;PMS_P1;PMS_P2;Temp;Humidity;BMP_temperature;BMP_pressure;BME280_temperature;BME280_humidity;BME280_pressure;Samples;Min_cycle;Max_cycle;Signal;HPM_P1;HPM_P2
2022/11/08 00:03:44;;;;;;;13.40;6.03;;;;;;;;;;7390002;19;20010;-72
2022/11/08 00:14:21;;;;;;;11.95;5.32;;;;;;;;;;7398506;19;20121;-72
2022/11/08 00:16:46;;;;;;;13.25;6.00;;;;;;;;;;7398518;19;20050;-73
2022/11/08 00:19:11;;;;;;;13.40;5.97;;;;;;;;;;7395417;19;20024;-72
2022/11/08 00:21:39;;;;;;;14.23;5.80;;;;;;;;;;7395560;19;20516;-72
2022/11/08 00:24:05;;;;;;;12.48;5.65;;;;;;;;;;7397314;19;20412;-73
2022/11/08 00:26:30;;;;;;;13.93;5.88;;;;;;;;;;7398505;19;20020;-71
2022/11/08 00:28:57;;;;;;;12.75;5.88;;;;;;;;;;7394246;19;20010;-73
2022/11/08 00:31:22;;;;;;;11.32;6.10;;;;;;;;;;7392779;19;19999;-72
2022/11/08 00:33:48;;;;;;;12.73;5.57;;;;;;;;;;7396401;19;20113;-72
2022/11/08 00:36:13;;;;;;;11.02;5.35;;;;;;;;;;7397018;19;20428;-71
2022/11/08 00:38:42;;;;;;;14.32;6.72;;;;;;;;;;7394677;19;20452;-71
2022/11/08 00:41:08;;;;;;;15.07;6.28;;;;;;;;;;7392973;19;20009;-74
2022/11/08 00:43:33;;;;;;;15.10;5.60;;;;;;;;;;7392728;19;19998;-72
2022/11/08 00:45:58;;;;;;;12.38;6.05;;;;;;;;;;7396260;19;20472;-72
2022/11/08 00:48:24;;;;;;;10.95;6.05;;;;;;;;;;7392800;19;20003;-71
2022/11/08 00:50:49;;;;;;;13.82;5.85;;;;;;;;;;7392796;19;20015;-72
2022/11/08 00:53:15;;;;;;;11.65;5.95;;;;;;;;;;7391338;19;20005;-73
2022/11/08 00:55:40;;;;;;;11.48;5.63;;;;;;;;;;7395494;19;20462;-72
2022/11/08 00:58:05;;;;;;;13.05;6.10;;;;;;;;;;7392484;19;20006;-71
2022/11/08 01:00:31;;;;;;;16.25;6.15;;;;;;;;;;7395747;19;20032;-71
2022/11/08 01:05:40;;;;;;;15.88;5.80;;;;;;;;;;7394812;19;20380;-72
2022/11/08 01:08:05;;;;;;;15.32;5.75;;;;;;;;;;7395943;19;19995;-73
2022/11/08 01:10:31;;;;;;;8.98;5.60;;;;;;;;;;7395749;19;20007;-73
2022/11/08 01:12:56;;;;;;;12.93;5.90;;;;;;;;;;7390271;19;20003;-73
2022/11/08 01:15:21;;;;;;;13.18;5.97;;;;;;;;;;7392450;19;20026;-73
2022/11/08 01:17:47;;;;;;;15.90;5.78;;;;;;;;;;7392885;19;20368;-73
2022/11/08 01:20:12;;;;;;;11.80;5.70;;;;;;;;;;7393644;19;20427;-73
2022/11/08 01:22:37;;;;;;;11.50;5.70;;;;;;;;;;7392292;19;20014;-73
2022/11/08 01:25:03;;;;;;;12.55;5.68;;;;;;;;;;7392440;19;20066;-73
2022/11/08 01:27:28;;;;;;;15.10;4.97;;;;;;;;;;7391681;19;19995;-73
2022/11/08 01:29:54;;;;;;;10.98;5.57;;;;;;;;;;7391811;19;20002;-73
2022/11/08 01:32:19;;;;;;;10.35;5.07;;;;;;;;;;7391751;19;20030;-72
2022/11/08 01:34:44;;;;;;;16.63;5.68;;;;;;;;;;7395601;19;19994;-73
2022/11/08 01:37:09;;;;;;;14.65;6.10;;;;;;;;;;7392135;19;19999;-72
2022/11/08 01:39:35;;;;;;;10.55;5.68;;;;;;;;;;7390945;19;20065;-73
2022/11/08 01:42:00;;;;;;;14.25;5.75;;;;;;;;;;7390247;19;20009;-73
2022/11/08 01:44:26;;;;;;;13.43;6.38;;;;;;;;;;7394947;19;20002;-73
2022/11/08 01:46:51;;;;;;;20.58;6.68;;;;;;;;;;7390444;19;19995;-73
2022/11/08 01:49:37;;;;;;;19.67;6.25;;;;;;;;;;7390735;19;20015;-73
2022/11/08 01:52:14;;;;;;;17.83;6.68;;;;;;;;;;7393466;19;20011;-72
2022/11/08 01:55:07;;;;;;;19.10;6.88;;;;;;;;;;7395496;19;20070;-73
2022/11/08 01:58:02;;;;;;;12.57;7.28;;;;;;;;;;7392660;19;20003;-73
2022/11/08 02:00:27;;;;;;;15.63;7.13;;;;;;;;;;7395012;19;20653;-73
2022/11/08 02:03:00;;;;;;;19.58;6.93;;;;;;;;;;7389305;19;20002;-72
2022/11/08 02:05:28;;;;;;;15.23;6.65;;;;;;;;;;7393008;19;20010;-72
2022/11/08 02:08:09;;;;;;;23.67;7.13;;;;;;;;;;7393831;19;19999;-71
2022/11/08 02:10:39;;;;;;;17.42;7.55;;;;;;;;;;7394533;19;20003;-72
2022/11/08 02:13:08;;;;;;;14.83;6.97;;;;;;;;;;7387659;19;20006;-72
2022/11/08 02:15:34;;;;;;;21.52;7.72;;;;;;;;;;7391663;19;20589;-73
2022/11/08 02:18:00;;;;;;;13.82;6.82;;;;;;;;;;7392420;19;20003;-70
2022/11/08 02:20:26;;;;;;;16.77;6.95;;;;;;;;;;7392374;19;20002;-72
2022/11/08 02:23:10;;;;;;;13.60;6.38;;;;;;;;;;7388509;19;19995;-72
2022/11/08 02:25:35;;;;;;;14.00;6.40;;;;;;;;;;7392792;19;20021;-72
2022/11/08 02:28:00;;;;;;;17.10;7.53;;;;;;;;;;7393294;19;20395;-72
2022/11/08 02:30:36;;;;;;;19.35;6.88;;;;;;;;;;7393123;19;20361;-72
2022/11/08 02:33:34;;;;;;;18.77;6.72;;;;;;;;;;7388798;19;20301;-71
2022/11/08 02:36:00;;;;;;;22.58;7.30;;;;;;;;;;7388063;19;20073;-72
2022/11/08 02:38:26;;;;;;;19.63;7.90;;;;;;;;;;7391785;19;20026;-72
2022/11/08 02:40:53;;;;;;;16.52;6.72;;;;;;;;;;7389655;19;20187;-72
2022/11/08 02:43:20;;;;;;;15.35;6.97;;;;;;;;;;7388943;19;20002;-72
2022/11/08 02:45:45;;;;;;;17.83;7.35;;;;;;;;;;7390036;19;20005;-73
2022/11/08 02:48:11;;;;;;;16.73;7.30;;;;;;;;;;7392477;19;19998;-73
2022/11/08 02:50:37;;;;;;;21.48;7.05;;;;;;;;;;7392978;19;20022;-73
2022/11/08 02:53:02;;;;;;;17.02;6.78;;;;;;;;;;7388438;19;20464;-73
2022/11/08 02:55:29;;;;;;;18.17;7.13;;;;;;;;;;7388974;19;20002;-73
2022/11/08 02:57:55;;;;;;;13.57;7.28;;;;;;;;;;7390876;19;20392;-73
2022/11/08 03:00:21;;;;;;;18.00;7.32;;;;;;;;;;7391681;19;20010;-73
2022/11/08 03:02:50;;;;;;;20.33;7.32;;;;;;;;;;7390821;19;19998;-74
2022/11/08 03:05:16;;;;;;;14.40;7.65;;;;;;;;;;7390363;19;20021;-73
2022/11/08 03:07:42;;;;;;;19.20;7.43;;;;;;;;;;7390863;19;20007;-71
2022/11/08 03:10:09;;;;;;;15.77;7.63;;;;;;;;;;7389621;19;20002;-73
2022/11/08 03:12:34;;;;;;;21.58;7.70;;;;;;;;;;7390319;19;20115;-73
2022/11/08 03:14:59;;;;;;;19.60;7.90;;;;;;;;;;7389085;19;20365;-72
2022/11/08 03:17:24;;;;;;;14.48;8.18;;;;;;;;;;7389670;19;20456;-72
2022/11/08 03:19:50;;;;;;;20.98;8.15;;;;;;;;;;7390263;19;20062;-72
2022/11/08 03:22:15;;;;;;;13.82;7.25;;;;;;;;;;7389821;19;20003;-72
2022/11/08 03:24:40;;;;;;;13.40;6.78;;;;;;;;;;7392161;19;19998;-73
2022/11/08 03:27:06;;;;;;;17.15;7.60;;;;;;;;;;7390160;19;20025;-72
2022/11/08 03:29:31;;;;;;;19.88;7.70;;;;;;;;;;7387909;19;20062;-72
2022/11/08 03:31:56;;;;;;;14.02;7.00;;;;;;;;;;7389260;19;20002;-72
2022/11/08 03:34:22;;;;;;;14.48;6.07;;;;;;;;;;7391147;19;19998;-72
2022/11/08 03:36:47;;;;;;;14.07;7.38;;;;;;;;;;7391770;19;20090;-72
2022/11/08 03:39:12;;;;;;;13.90;7.03;;;;;;;;;;7388841;19;20045;-72
2022/11/08 03:41:38;;;;;;;15.93;7.15;;;;;;;;;;7388936;19;20357;-73
2022/11/08 03:44:04;;;;;;;14.48;6.38;;;;;;;;;;7389040;19;20341;-72
2022/11/08 03:46:29;;;;;;;13.52;7.07;;;;;;;;;;7391622;19;20003;-72
2022/11/08 03:48:54;;;;;;;13.10;6.63;;;;;;;;;;7387173;19;20639;-72
2022/11/08 03:51:20;;;;;;;14.70;6.80;;;;;;;;;;7387440;19;20002;-73
2022/11/08 03:53:45;;;;;;;13.23;7.18;;;;;;;;;;7389762;19;19999;-72
2022/11/08 03:56:10;;;;;;;17.35;7.00;;;;;;;;;;7388477;19;20018;-71
2022/11/08 03:58:36;;;;;;;10.43;6.40;;;;;;;;;;7389506;19;20011;-73
2022/11/08 04:01:05;;;;;;;18.63;6.82;;;;;;;;;;7387431;19;20069;-73
2022/11/08 04:03:31;;;;;;;9.93;6.18;;;;;;;;;;7387304;19;19995;-71
2022/11/08 04:05:59;;;;;;;12.45;6.70;;;;;;;;;;7390194;19;20471;-72
2022/11/08 04:08:25;;;;;;;17.95;6.78;;;;;;;;;;7391007;19;20110;-72
2022/11/08 04:10:54;;;;;;;11.73;6.45;;;;;;;;;;7387223;19;19987;-72
2022/11/08 04:16:04;;;;;;;15.52;6.25;;;;;;;;;;7390151;19;20379;-72
2022/11/08 04:21:18;;;;;;;13.30;6.30;;;;;;;;;;7387531;19;20013;-71
2022/11/08 04:23:43;;;;;;;13.82;7.32;;;;;;;;;;7388887;19;19995;-73
2022/11/08 04:26:10;;;;;;;15.50;7.35;;;;;;;;;;7390552;19;20018;-73
2022/11/08 04:28:37;;;;;;;15.98;6.93;;;;;;;;;;7389766;19;19999;-73
2022/11/08 04:31:06;;;;;;;17.67;8.00;;;;;;;;;;7387111;19;20022;-72
2022/11/08 04:33:32;;;;;;;16.65;7.53;;;;;;;;;;7386413;19;20003;-72
2022/11/08 04:36:02;;;;;;;14.50;7.63;;;;;;;;;;7388979;19;20021;-72
2022/11/08 04:38:29;;;;;;;16.35;7.57;;;;;;;;;;7388784;19;20002;-73
2022/11/08 04:40:59;;;;;;;20.50;7.47;;;;;;;;;;7386625;19;19998;-72
2022/11/08 04:43:24;;;;;;;11.75;7.47;;;;;;;;;;7384681;19;20025;-72
2022/11/08 04:45:50;;;;;;;15.15;7.93;;;;;;;;;;7388252;19;19987;-71
2022/11/08 04:48:15;;;;;;;13.07;6.68;;;;;;;;;;7388522;19;20006;-72
2022/11/08 04:50:41;;;;;;;11.77;6.65;;;;;;;;;;7388920;19;20484;-72
2022/11/08 04:53:06;;;;;;;13.60;6.88;;;;;;;;;;7387762;19;20806;-72
2022/11/08 04:55:31;;;;;;;14.23;7.53;;;;;;;;;;7389618;19;20334;-73
2022/11/08 04:57:57;;;;;;;15.52;7.40;;;;;;;;;;7394831;19;19994;-72
2022/11/08 05:00:23;;;;;;;15.68;6.88;;;;;;;;;;7394512;19;20134;-73
2022/11/08 05:02:49;;;;;;;14.38;7.00;;;;;;;;;;7392892;19;20029;-72
2022/11/08 05:05:14;;;;;;;17.98;7.90;;;;;;;;;;7389084;19;19997;-72
2022/11/08 05:07:39;;;;;;;11.35;6.72;;;;;;;;;;7387152;19;20002;-73
2022/11/08 05:10:05;;;;;;;16.77;7.30;;;;;;;;;;7387742;19;20010;-72
2022/11/08 05:12:30;;;;;;;15.95;6.93;;;;;;;;;;7386395;19;20402;-72
2022/11/08 05:14:56;;;;;;;12.40;6.88;;;;;;;;;;7383713;19;20735;-71
2022/11/08 05:17:21;;;;;;;14.43;6.60;;;;;;;;;;7322875;19;19995;-72
2022/11/08 05:25:15;;;;;;;17.25;6.75;;;;;;;;;;7395569;19;20022;-71
2022/11/08 05:27:40;;;;;;;14.10;6.90;;;;;;;;;;7395359;19;19995;-71
2022/11/08 05:30:06;;;;;;;13.35;6.57;;;;;;;;;;7394672;19;20002;-71
2022/11/08 05:32:31;;;;;;;17.35;6.68;;;;;;;;;;7391239;19;20468;-71
2022/11/08 05:34:56;;;;;;;15.75;6.65;;;;;;;;;;7392193;19;20009;-71
2022/11/08 05:37:22;;;;;;;16.00;7.18;;;;;;;;;;7392328;19;20003;-71
2022/11/08 05:39:47;;;;;;;12.27;6.18;;;;;;;;;;7389014;19;20011;-72
2022/11/08 05:42:13;;;;;;;13.77;6.22;;;;;;;;;;7389451;19;20003;-73
2022/11/08 05:44:38;;;;;;;17.38;7.38;;;;;;;;;;7390939;19;19999;-71
2022/11/08 05:47:03;;;;;;;13.40;6.38;;;;;;;;;;7388238;19;20346;-71
2022/11/08 05:49:29;;;;;;;21.63;7.53;;;;;;;;;;7388654;19;20032;-73
2022/11/08 05:51:54;;;;;;;16.02;7.57;;;;;;;;;;7386596;19;20032;-72
2022/11/08 05:54:19;;;;;;;19.90;8.07;;;;;;;;;;7391248;19;20035;-72
2022/11/08 05:56:45;;;;;;;15.00;7.53;;;;;;;;;;7393808;19;20022;-73
2022/11/08 05:59:10;;;;;;;17.42;7.43;;;;;;;;;;7390966;19;19998;-71
2022/11/08 06:01:35;;;;;;;20.85;7.82;;;;;;;;;;7392351;19;20003;-73
2022/11/08 06:04:01;;;;;;;19.45;7.72;;;;;;;;;;7392295;19;20017;-72
2022/11/08 06:06:26;;;;;;;18.77;7.85;;;;;;;;;;7393276;19;20071;-72
2022/11/08 06:08:51;;;;;;;18.10;7.05;;;;;;;;;;7390501;19;19991;-71
2022/11/08 06:11:23;;;;;;;18.83;7.53;;;;;;;;;;7391548;19;19998;-73
2022/11/08 06:13:49;;;;;;;16.13;6.65;;;;;;;;;;7393411;19;20003;-71
2022/11/08 06:16:16;;;;;;;17.98;5.80;;;;;;;;;;7394295;19;20003;-71
2022/11/08 06:18:41;;;;;;;13.40;6.45;;;;;;;;;;7393426;19;20070;-73
2022/11/08 06:21:11;;;;;;;18.73;7.35;;;;;;;;;;7391300;19;20006;-73
2022/11/08 06:23:36;;;;;;;15.98;6.60;;;;;;;;;;7390811;19;20026;-73
2022/11/08 06:26:02;;;;;;;18.90;6.97;;;;;;;;;;7393282;19;19998;-72
2022/11/08 06:28:28;;;;;;;23.35;7.60;;;;;;;;;;7394115;19;20033;-72
2022/11/08 06:30:53;;;;;;;27.13;7.07;;;;;;;;;;7388717;19;20002;-71
2022/11/08 06:33:19;;;;;;;16.85;7.00;;;;;;;;;;7384352;19;20009;-76
2022/11/08 06:35:45;;;;;;;16.90;6.70;;;;;;;;;;7383892;19;20020;-76
2022/11/08 06:38:11;;;;;;;19.70;6.70;;;;;;;;;;7389246;19;19998;-76
2022/11/08 06:40:37;;;;;;;18.50;6.65;;;;;;;;;;7391281;19;20119;-75
2022/11/08 06:43:03;;;;;;;15.73;7.40;;;;;;;;;;7388108;19;20365;-72
2022/11/08 06:45:31;;;;;;;16.92;7.72;;;;;;;;;;7391603;19;20007;-72
2022/11/08 06:48:01;;;;;;;15.68;7.68;;;;;;;;;;7389998;19;20006;-71
2022/11/08 06:50:28;;;;;;;18.05;8.52;;;;;;;;;;7392528;19;19998;-70
2022/11/08 06:53:01;;;;;;;22.08;8.70;;;;;;;;;;7388823;19;20020;-71
2022/11/08 06:55:27;;;;;;;26.15;8.43;;;;;;;;;;7391241;19;20006;-71
2022/11/08 06:57:52;;;;;;;20.85;8.18;;;;;;;;;;7390028;19;20005;-72
2022/11/08 07:00:18;;;;;;;17.60;8.68;;;;;;;;;;7392944;19;20010;-72
2022/11/08 07:02:44;;;;;;;19.23;8.10;;;;;;;;;;7392191;19;19999;-72
2022/11/08 07:05:10;;;;;;;24.77;9.55;;;;;;;;;;7391770;19;20055;-72
2022/11/08 07:07:36;;;;;;;20.83;8.40;;;;;;;;;;7390836;19;20330;-72
2022/11/08 07:10:01;;;;;;;15.02;7.97;;;;;;;;;;7390695;19;20006;-72
2022/11/08 07:12:26;;;;;;;17.48;8.10;;;;;;;;;;7389945;19;20342;-72
2022/11/08 07:14:52;;;;;;;23.02;8.27;;;;;;;;;;7393181;19;20456;-72
2022/11/08 07:17:17;;;;;;;23.65;8.18;;;;;;;;;;7388225;19;20010;-72
2022/11/08 07:19:43;;;;;;;24.42;8.55;;;;;;;;;;7389460;19;20007;-72
2022/11/08 07:22:08;;;;;;;15.32;8.07;;;;;;;;;;7391670;19;20028;-72
2022/11/08 07:24:33;;;;;;;14.40;7.68;;;;;;;;;;7392360;19;19991;-72
2022/11/08 07:26:59;;;;;;;16.75;7.28;;;;;;;;;;7389987;19;19998;-72
2022/11/08 07:29:24;;;;;;;21.13;7.47;;;;;;;;;;7388394;19;20002;-73
2022/11/08 07:31:49;;;;;;;18.90;7.40;;;;;;;;;;7389268;19;20006;-72
2022/11/08 07:34:16;;;;;;;19.73;7.20;;;;;;;;;;7394580;19;19998;-72
2022/11/08 07:36:41;;;;;;;15.73;6.97;;;;;;;;;;7397448;19;19994;-72
2022/11/08 07:39:07;;;;;;;15.05;7.70;;;;;;;;;;7393321;19;19995;-72
2022/11/08 07:41:35;;;;;;;12.07;7.10;;;;;;;;;;7388078;19;20051;-72
2022/11/08 07:44:00;;;;;;;16.88;8.02;;;;;;;;;;7390894;19;20007;-72
2022/11/08 07:46:26;;;;;;;18.42;8.68;;;;;;;;;;7391270;19;20007;-73
2022/11/08 07:48:51;;;;;;;17.40;8.10;;;;;;;;;;7389808;19;20011;-70
2022/11/08 07:51:16;;;;;;;14.48;7.65;;;;;;;;;;7388725;19;20002;-71
2022/11/08 07:53:43;;;;;;;17.38;8.85;;;;;;;;;;7389639;19;19998;-71
2022/11/08 07:56:09;;;;;;;18.83;9.52;;;;;;;;;;7391255;19;20007;-72
2022/11/08 07:58:34;;;;;;;21.42;9.45;;;;;;;;;;7389756;19;20009;-71
2022/11/08 08:01:02;;;;;;;24.50;8.90;;;;;;;;;;7390728;19;20059;-72
2022/11/08 08:03:28;;;;;;;19.35;8.65;;;;;;;;;;7387881;19;20003;-73
2022/11/08 08:05:53;;;;;;;24.67;8.18;;;;;;;;;;7389322;19;19995;-73
2022/11/08 08:08:18;;;;;;;17.52;7.40;;;;;;;;;;7388841;19;20010;-72
2022/11/08 08:10:44;;;;;;;20.60;8.00;;;;;;;;;;7390506;19;20026;-73
2022/11/08 08:13:10;;;;;;;16.20;8.48;;;;;;;;;;7385947;19;19999;-72
2022/11/08 08:15:36;;;;;;;19.58;8.00;;;;;;;;;;7387203;19;20074;-72
2022/11/08 08:18:02;;;;;;;15.95;8.90;;;;;;;;;;7389037;19;20023;-72
2022/11/08 08:20:29;;;;;;;17.92;8.98;;;;;;;;;;7390220;19;20022;-72
2022/11/08 08:22:55;;;;;;;14.25;7.43;;;;;;;;;;7384499;19;20003;-71
2022/11/08 08:25:20;;;;;;;18.10;10.40;;;;;;;;;;7387868;19;20421;-71
2022/11/08 08:27:47;;;;;;;24.33;11.57;;;;;;;;;;7389737;19;20078;-71
2022/11/08 08:30:14;;;;;;;17.15;7.40;;;;;;;;;;7391005;19;20009;-73
2022/11/08 08:32:39;;;;;;;14.30;7.10;;;;;;;;;;7396346;19;20027;-74
2022/11/08 08:35:05;;;;;;;14.90;7.22;;;;;;;;;;7396300;19;20010;-71
2022/11/08 08:37:30;;;;;;;15.48;6.53;;;;;;;;;;7393891;19;20010;-71
2022/11/08 08:39:55;;;;;;;17.10;7.28;;;;;;;;;;7396398;19;20010;-72
2022/11/08 08:42:21;;;;;;;12.15;6.35;;;;;;;;;;7396471;19;20326;-74
2022/11/08 08:44:46;;;;;;;15.98;6.80;;;;;;;;;;7398035;19;19990;-73
2022/11/08 08:47:11;;;;;;;11.75;6.63;;;;;;;;;;7396386;19;20062;-73
2022/11/08 08:49:37;;;;;;;14.88;6.68;;;;;;;;;;7396197;19;20520;-74
2022/11/08 08:52:02;;;;;;;14.05;6.68;;;;;;;;;;7395765;19;19998;-73
2022/11/08 08:54:27;;;;;;;13.18;6.20;;;;;;;;;;7397415;19;20002;-73
2022/11/08 08:56:53;;;;;;;13.90;6.22;;;;;;;;;;7393648;19;20007;-73
2022/11/08 08:59:18;;;;;;;15.07;6.88;;;;;;;;;;7393768;19;20543;-71
2022/11/08 09:01:43;;;;;;;12.18;6.85;;;;;;;;;;7393506;19;19999;-73
2022/11/08 09:04:09;;;;;;;12.98;6.32;;;;;;;;;;7396705;19;20023;-73
2022/11/08 09:06:34;;;;;;;10.80;6.28;;;;;;;;;;7395416;19;20559;-72
2022/11/08 09:08:59;;;;;;;11.00;4.97;;;;;;;;;;7392651;19;20048;-72
2022/11/08 09:11:25;;;;;;;8.15;4.90;;;;;;;;;;7389377;19;20002;-72
2022/11/08 09:13:50;;;;;;;12.10;4.50;;;;;;;;;;7393765;19;20019;-73
2022/11/08 09:16:18;;;;;;;8.15;4.25;;;;;;;;;;7394904;19;20001;-73
2022/11/08 09:18:44;;;;;;;8.48;4.05;;;;;;;;;;7390823;19;20022;-73
2022/11/08 09:21:09;;;;;;;9.60;5.03;;;;;;;;;;7394498;19;20441;-73
2022/11/08 09:23:34;;;;;;;12.38;5.25;;;;;;;;;;7392057;19;20002;-73
2022/11/08 09:26:03;;;;;;;7.82;3.80;;;;;;;;;;7396434;19;20002;-72
2022/11/08 09:28:33;;;;;;;9.55;4.57;;;;;;;;;;7394853;19;20023;-72
2022/11/08 09:31:04;;;;;;;10.95;6.53;;;;;;;;;;7391838;19;19999;-72
2022/11/08 09:33:29;;;;;;;9.43;4.55;;;;;;;;;;7388182;19;20006;-72
2022/11/08 09:35:55;;;;;;;6.25;3.70;;;;;;;;;;7394566;19;20002;-72
2022/11/08 09:38:20;;;;;;;11.15;4.30;;;;;;;;;;7393181;19;20098;-72
2022/11/08 09:41:26;;;;;;;10.95;4.22;;;;;;;;;;7392837;19;20002;-72
2022/11/08 09:43:51;;;;;;;8.05;3.90;;;;;;;;;;7393315;19;20641;-72
2022/11/08 09:46:38;;;;;;;7.13;4.03;;;;;;;;;;7392353;19;20013;-72
2022/11/08 09:49:09;;;;;;;8.73;4.18;;;;;;;;;;7391788;19;20558;-71
2022/11/08 09:51:38;;;;;;;7.38;4.38;;;;;;;;;;7392383;19;20018;-72
2022/11/08 09:54:07;;;;;;;9.90;3.95;;;;;;;;;;7394119;19;20002;-72
2022/11/08 09:56:37;;;;;;;6.30;3.88;;;;;;;;;;7393084;19;20010;-72
2022/11/08 09:59:28;;;;;;;9.05;4.40;;;;;;;;;;7388869;19;20009;-72
2022/11/08 10:01:53;;;;;;;9.95;4.18;;;;;;;;;;7390418;19;20007;-73
2022/11/08 10:04:22;;;;;;;7.18;4.15;;;;;;;;;;7394033;19;20014;-73
2022/11/08 10:06:48;;;;;;;11.80;4.32;;;;;;;;;;7394220;19;20026;-71
2022/11/08 10:09:22;;;;;;;7.85;3.40;;;;;;;;;;7391091;19;19999;-71
2022/11/08 10:12:08;;;;;;;10.65;3.70;;;;;;;;;;7390729;19;20380;-73
2022/11/08 10:14:37;;;;;;;9.70;3.30;;;;;;;;;;7393628;19;20018;-73
2022/11/08 10:17:20;;;;;;;6.28;2.92;;;;;;;;;;7392748;19;20330;-73
2022/11/08 10:20:00;;;;;;;6.50;3.35;;;;;;;;;;7392550;19;19998;-72
2022/11/08 10:22:35;;;;;;;7.82;3.22;;;;;;;;;;7391898;19;20021;-73
2022/11/08 10:25:01;;;;;;;8.48;3.20;;;;;;;;;;7390810;19;19995;-73
2022/11/08 10:27:36;;;;;;;8.38;3.22;;;;;;;;;;7392326;19;20058;-72
2022/11/08 10:30:05;;;;;;;4.90;2.88;;;;;;;;;;7386308;19;20009;-73
2022/11/08 10:32:33;;;;;;;7.15;3.38;;;;;;;;;;7391178;19;20017;-71
2022/11/08 10:35:14;;;;;;;6.18;3.05;;;;;;;;;;7391009;19;20002;-71
2022/11/08 10:37:42;;;;;;;7.45;3.17;;;;;;;;;;7385652;19;20170;-71
2022/11/08 10:40:38;;;;;;;6.97;3.28;;;;;;;;;;7390405;19;20074;-72
2022/11/08 10:43:34;;;;;;;8.20;3.22;;;;;;;;;;7391288;19;20055;-72
2022/11/08 10:45:59;;;;;;;5.35;3.35;;;;;;;;;;7393589;19;20467;-71
2022/11/08 10:48:25;;;;;;;6.00;3.00;;;;;;;;;;7392948;19;20006;-72
2022/11/08 10:50:51;;;;;;;6.25;3.40;;;;;;;;;;7389496;19;20002;-72
2022/11/08 10:53:23;;;;;;;6.85;3.13;;;;;;;;;;7388874;19;19998;-72
2022/11/08 10:55:51;;;;;;;8.18;3.38;;;;;;;;;;7391442;19;20003;-71
2022/11/08 10:58:31;;;;;;;10.88;3.45;;;;;;;;;;7385056;19;20122;-72
2022/11/08 11:01:14;;;;;;;7.75;3.30;;;;;;;;;;7388187;19;20014;-71
2022/11/08 11:03:40;;;;;;;6.13;3.00;;;;;;;;;;7389351;19;20015;-71
2022/11/08 11:06:23;;;;;;;5.65;2.78;;;;;;;;;;7389837;19;20363;-72
2022/11/08 11:08:53;;;;;;;7.43;3.00;;;;;;;;;;7391212;19;20070;-71
2022/11/08 11:11:37;;;;;;;8.25;3.40;;;;;;;;;;7387727;19;20006;-71
2022/11/08 11:14:09;;;;;;;5.60;2.90;;;;;;;;;;7389880;19;20417;-71
2022/11/08 11:16:35;;;;;;;6.35;2.78;;;;;;;;;;7391264;19;19991;-71
2022/11/08 11:19:03;;;;;;;5.53;2.70;;;;;;;;;;7388178;19;20002;-72
2022/11/08 11:21:36;;;;;;;4.97;2.70;;;;;;;;;;7388853;19;20463;-72
2022/11/08 11:24:18;;;;;;;6.82;2.55;;;;;;;;;;7391111;19;20003;-72
2022/11/08 11:26:58;;;;;;;4.57;2.60;;;;;;;;;;7393060;19;20618;-72
2022/11/08 11:29:30;;;;;;;5.47;2.28;;;;;;;;;;7389538;19;20350;-72
2022/11/08 11:31:56;;;;;;;4.10;2.15;;;;;;;;;;7389264;19;20003;-72
2022/11/08 11:34:42;;;;;;;5.07;2.60;;;;;;;;;;7391378;19;20020;-72
2022/11/08 11:37:08;;;;;;;3.70;2.30;;;;;;;;;;7388585;19;19998;-72
2022/11/08 11:39:33;;;;;;;6.93;2.50;;;;;;;;;;7389593;19;19998;-73
2022/11/08 11:42:18;;;;;;;5.60;2.53;;;;;;;;;;7389426;19;20018;-72
2022/11/08 11:44:56;;;;;;;6.50;3.05;;;;;;;;;;7391412;19;20279;-71
2022/11/08 11:47:38;;;;;;;5.88;2.50;;;;;;;;;;7391119;19;19994;-72
2022/11/08 11:50:24;;;;;;;6.68;3.03;;;;;;;;;;7392325;19;20333;-72
2022/11/08 11:52:49;;;;;;;5.75;2.40;;;;;;;;;;7388554;19;20015;-72
2022/11/08 11:55:16;;;;;;;5.50;2.47;;;;;;;;;;7390429;19;19995;-72
2022/11/08 11:58:03;;;;;;;6.90;2.78;;;;;;;;;;7389210;19;20107;-70
2022/11/08 12:00:29;;;;;;;7.45;2.60;;;;;;;;;;7388523;19;20006;-71
2022/11/08 12:03:20;;;;;;;4.60;2.53;;;;;;;;;;7385778;19;20004;-72
2022/11/08 12:05:51;;;;;;;;;;;;;;;;;;7393525;19;19999;-72
2022/11/08 12:08:38;;;;;;;4.82;2.47;;;;;;;;;;7397941;19;19918;-71
2022/11/08 12:11:22;;;;;;;6.05;2.30;;;;;;;;;;7394360;19;20020;-71
2022/11/08 12:13:48;;;;;;;5.15;2.80;;;;;;;;;;7397563;19;20002;-72
2022/11/08 12:16:30;;;;;;;6.07;2.53;;;;;;;;;;7397593;19;20684;-71
2022/11/08 12:19:18;;;;;;;7.75;2.97;;;;;;;;;;7390758;19;20014;-72
2022/11/08 12:22:00;;;;;;;5.35;2.50;;;;;;;;;;7395584;19;20022;-72
2022/11/08 12:24:48;;;;;;;4.93;2.60;;;;;;;;;;7390591;19;19998;-73
2022/11/08 12:27:16;;;;;;;5.13;2.55;;;;;;;;;;7398467;19;20030;-72
2022/11/08 12:30:10;;;;;;;5.82;2.83;;;;;;;;;;7394789;19;20562;-71
2022/11/08 12:32:54;;;;;;;6.70;3.00;;;;;;;;;;7393288;19;20077;-72
2022/11/08 12:35:50;;;;;;;7.03;2.50;;;;;;;;;;7395421;19;20456;-71
2022/11/08 12:38:53;;;;;;;8.98;2.78;;;;;;;;;;7392239;19;20002;-71
2022/11/08 12:41:39;;;;;;;8.90;3.40;;;;;;;;;;7393805;19;19990;-71
2022/11/08 12:44:43;;;;;;;6.68;2.78;;;;;;;;;;7396801;19;20002;-72
2022/11/08 12:47:29;;;;;;;6.50;2.95;;;;;;;;;;7393875;19;19999;-71
2022/11/08 12:50:19;;;;;;;6.15;2.40;;;;;;;;;;7395003;19;19994;-71
2022/11/08 12:53:05;;;;;;;5.00;2.50;;;;;;;;;;7393559;19;20477;-71
2022/11/08 12:55:40;;;;;;;3.85;2.13;;;;;;;;;;7396725;19;20005;-71
2022/11/08 12:58:29;;;;;;;6.13;2.65;;;;;;;;;;7392906;19;20394;-71
2022/11/08 13:01:00;;;;;;;5.70;2.50;;;;;;;;;;7395473;19;19998;-71
2022/11/08 13:03:44;;;;;;;5.65;2.45;;;;;;;;;;7390262;19;19999;-71
2022/11/08 13:06:34;;;;;;;5.97;2.45;;;;;;;;;;7389212;19;20006;-72
2022/11/08 13:09:30;;;;;;;4.72;2.15;;;;;;;;;;7388734;19;20026;-72
2022/11/08 13:12:03;;;;;;;8.57;2.58;;;;;;;;;;7385352;19;20006;-70
2022/11/08 13:14:29;;;;;;;11.45;2.80;;;;;;;;;;7392034;19;20769;-70
2022/11/08 13:17:25;;;;;;;7.13;3.00;;;;;;;;;;7388724;19;20010;-71
2022/11/08 13:19:50;;;;;;;6.15;2.83;;;;;;;;;;7392204;19;20007;-72
2022/11/08 13:22:28;;;;;;;4.93;2.30;;;;;;;;;;7390505;19;20543;-71
2022/11/08 13:25:13;;;;;;;8.00;2.67;;;;;;;;;;7396602;19;20280;-71
2022/11/08 13:27:40;;;;;;;6.63;2.83;;;;;;;;;;7395823;19;20002;-71
2022/11/08 13:30:12;;;;;;;5.68;2.05;;;;;;;;;;7393670;19;20017;-71
2022/11/08 13:32:53;;;;;;;7.00;2.58;;;;;;;;;;7391658;19;20495;-71
2022/11/08 13:35:37;;;;;;;5.75;2.53;;;;;;;;;;7393819;19;20006;-71
2022/11/08 13:38:31;;;;;;;7.70;2.45;;;;;;;;;;7393866;19;20019;-71
2022/11/08 13:41:06;;;;;;;5.22;2.70;;;;;;;;;;7394782;19;20377;-70
2022/11/08 13:43:33;;;;;;;6.78;2.30;;;;;;;;;;7390761;19;19998;-70
2022/11/08 13:46:28;;;;;;;4.82;2.17;;;;;;;;;;7393974;19;20435;-68
2022/11/08 13:48:56;;;;;;;4.13;2.40;;;;;;;;;;7392265;19;20010;-69
2022/11/08 13:51:23;;;;;;;5.78;2.50;;;;;;;;;;7390372;19;20011;-72
2022/11/08 13:53:53;;;;;;;5.82;2.80;;;;;;;;;;7385357;19;20074;-68
2022/11/08 13:56:44;;;;;;;4.03;2.42;;;;;;;;;;7393787;19;20007;-69
2022/11/08 13:59:31;;;;;;;5.95;2.47;;;;;;;;;;7391671;19;20003;-70
2022/11/08 14:01:56;;;;;;;6.15;3.10;;;;;;;;;;7392702;19;20002;-72
2022/11/08 14:04:39;;;;;;;11.15;3.00;;;;;;;;;;7394119;19;20018;-70
2022/11/08 14:07:24;;;;;;;5.57;2.60;;;;;;;;;;7394429;19;20085;-70
2022/11/08 14:10:07;;;;;;;6.82;2.53;;;;;;;;;;7394133;19;20087;-71
2022/11/08 14:12:48;;;;;;;6.95;2.42;;;;;;;;;;7392747;19;20018;-70
2022/11/08 14:15:38;;;;;;;5.07;2.33;;;;;;;;;;7393289;19;20166;-71
2022/11/08 14:18:13;;;;;;;3.17;2.17;;;;;;;;;;7389699;19;19999;-70
2022/11/08 14:20:45;;;;;;;5.82;2.55;;;;;;;;;;7391110;19;20383;-70
2022/11/08 14:23:25;;;;;;;6.03;2.70;;;;;;;;;;7390866;19;20002;-70
2022/11/08 14:25:55;;;;;;;8.20;2.55;;;;;;;;;;7392985;19;20206;-70
2022/11/08 14:28:28;;;;;;;5.27;2.60;;;;;;;;;;7393109;19;19999;-70
2022/11/08 14:30:54;;;;;;;6.15;2.30;;;;;;;;;;7390914;19;20036;-70
2022/11/08 14:33:23;;;;;;;5.93;2.60;;;;;;;;;;7391051;19;20025;-70
2022/11/08 14:36:12;;;;;;;5.20;2.40;;;;;;;;;;7391400;19;20058;-70
2022/11/08 14:38:49;;;;;;;5.72;2.50;;;;;;;;;;7392189;19;20002;-70
2022/11/08 14:41:23;;;;;;;4.82;2.45;;;;;;;;;;7392653;19;20019;-71
2022/11/08 14:43:50;;;;;;;7.80;3.00;;;;;;;;;;7391667;19;20002;-70
2022/11/08 14:46:29;;;;;;;5.72;2.58;;;;;;;;;;7391733;19;20376;-70
2022/11/08 14:48:56;;;;;;;5.50;2.42;;;;;;;;;;7387163;19;20018;-70
2022/11/08 14:51:23;;;;;;;6.95;2.80;;;;;;;;;;7388964;19;20486;-71
2022/11/08 14:53:50;;;;;;;9.02;2.85;;;;;;;;;;7389650;19;19994;-70
2022/11/08 14:56:22;;;;;;;4.95;2.40;;;;;;;;;;7391810;19;20092;-70
2022/11/08 14:58:49;;;;;;;5.28;2.53;;;;;;;;;;7392215;19;19990;-70
2022/11/08 15:01:19;;;;;;;6.35;3.10;;;;;;;;;;7388779;19;20007;-71
2022/11/08 15:03:57;;;;;;;7.07;2.45;;;;;;;;;;7392047;19;20022;-70
2022/11/08 15:06:31;;;;;;;5.70;2.88;;;;;;;;;;7391492;19;20062;-70
2022/11/08 15:08:56;;;;;;;7.68;2.80;;;;;;;;;;7390178;19;20003;-71
2022/11/08 15:11:34;;;;;;;7.22;2.63;;;;;;;;;;7391083;19;20066;-71
2022/11/08 15:14:01;;;;;;;5.47;2.70;;;;;;;;;;7392270;19;20004;-70
2022/11/08 15:16:36;;;;;;;7.05;3.00;;;;;;;;;;7388655;19;20350;-70
2022/11/08 15:19:30;;;;;;;6.03;2.60;;;;;;;;;;7389396;19;20005;-71